sensor_id;sensor_type;location;lat;lon;timestamp;pressure;altitude;pressure_sealevel;temperature;humidity
14120;BME280;7138;49.246;9.100;2022-08-14T00:02:18;98307.16;;;23.60;66.29
14120;BME280;7138;49.246;9.100;2022-08-14T00:04:44;98293.28;;;23.56;66.44
14120;BME280;7138;49.246;9.100;2022-08-14T00:07:12;98291.78;;;23.52;66.79
14120;BME280;7138;49.246;9.100;2022-08-14T00:09:38;98287.44;;;23.51;66.95
14120;BME280;7138;49.246;9.100;2022-08-14T00:12:05;98287.78;;;23.45;67.33
14120;BME280;7138;49.246;9.100;2022-08-14T00:14:33;98288.72;;;23.44;67.87
14120;BME280;7138;49.246;9.100;2022-08-14T00:16:58;98279.19;;;23.42;67.90
14120;BME280;7138;49.246;9.100;2022-08-14T00:19:25;98275.84;;;23.38;68.27
14120;BME280;7138;49.246;9.100;2022-08-14T00:21:51;98270.94;;;23.32;68.67
14120;BME280;7138;49.246;9.100;2022-08-14T00:24:17;98280.31;;;23.37;68.44
14120;BME280;7138;49.246;9.100;2022-08-14T00:26:43;98272.38;;;23.37;69.04
14120;BME280;7138;49.246;9.100;2022-08-14T00:29:09;98270.56;;;23.38;69.04
14120;BME280;7138;49.246;9.100;2022-08-14T00:31:36;98265.28;;;23.38;68.71
14120;BME280;7138;49.246;9.100;2022-08-14T00:34:03;98264.41;;;23.39;68.73
14120;BME280;7138;49.246;9.100;2022-08-14T00:36:29;98258.34;;;23.37;69.07
14120;BME280;7138;49.246;9.100;2022-08-14T00:38:55;98251.53;;;23.33;69.39
14120;BME280;7138;49.246;9.100;2022-08-14T00:41:21;98251.53;;;23.33;69.81
14120;BME280;7138;49.246;9.100;2022-08-14T00:43:47;98246.38;;;23.31;70.01
14120;BME280;7138;49.246;9.100;2022-08-14T00:46:13;98247.38;;;23.29;70.31
14120;BME280;7138;49.246;9.100;2022-08-14T00:48:40;98242.28;;;23.26;70.30
14120;BME280;7138;49.246;9.100;2022-08-14T00:51:08;98237.19;;;23.23;70.81
14120;BME280;7138;49.246;9.100;2022-08-14T00:53:36;98236.25;;;23.24;70.67
14120;BME280;7138;49.246;9.100;2022-08-14T00:56:04;98234.66;;;23.21;70.78
14120;BME280;7138;49.246;9.100;2022-08-14T00:58:30;98235.56;;;23.20;70.65
14120;BME280;7138;49.246;9.100;2022-08-14T01:00:57;98213.47;;;23.07;70.91
14120;BME280;7138;49.246;9.100;2022-08-14T01:03:25;98232.94;;;23.20;70.88
14120;BME280;7138;49.246;9.100;2022-08-14T01:05:56;98231.34;;;23.18;71.42
14120;BME280;7138;49.246;9.100;2022-08-14T01:08:26;98220.97;;;23.15;71.22
14120;BME280;7138;49.246;9.100;2022-08-14T01:10:54;98229.91;;;23.12;71.34
14120;BME280;7138;49.246;9.100;2022-08-14T01:13:23;98230.16;;;23.08;71.43
14120;BME280;7138;49.246;9.100;2022-08-14T01:15:54;98225.84;;;23.07;71.32
14120;BME280;7138;49.246;9.100;2022-08-14T01:18:22;98218.94;;;23.04;70.89
14120;BME280;7138;49.246;9.100;2022-08-14T01:21:09;98224.66;;;22.97;71.68
14120;BME280;7138;49.246;9.100;2022-08-14T01:23:44;98230.13;;;22.94;71.89
14120;BME280;7138;49.246;9.100;2022-08-14T01:26:12;98231.06;;;22.93;71.90
14120;BME280;7138;49.246;9.100;2022-08-14T01:28:41;98217.53;;;22.83;72.15
14120;BME280;7138;49.246;9.100;2022-08-14T01:31:10;98229.91;;;22.82;73.35
14120;BME280;7138;49.246;9.100;2022-08-14T01:33:38;98229.13;;;22.80;72.75
14120;BME280;7138;49.246;9.100;2022-08-14T01:36:08;98230.09;;;22.79;73.12
14120;BME280;7138;49.246;9.100;2022-08-14T01:38:34;98227.63;;;22.76;73.21
14120;BME280;7138;49.246;9.100;2022-08-14T01:41:04;98218.75;;;22.77;72.52
14120;BME280;7138;49.246;9.100;2022-08-14T01:43:31;98217.25;;;22.73;73.55
14120;BME280;7138;49.246;9.100;2022-08-14T01:46:04;98213.94;;;22.70;73.55
14120;BME280;7138;49.246;9.100;2022-08-14T01:48:31;98207.97;;;22.66;73.66
14120;BME280;7138;49.246;9.100;2022-08-14T01:50:58;98204.63;;;22.63;73.90
14120;BME280;7138;49.246;9.100;2022-08-14T01:53:25;98198.63;;;22.61;73.97
14120;BME280;7138;49.246;9.100;2022-08-14T01:55:54;98201.25;;;22.61;74.01
14120;BME280;7138;49.246;9.100;2022-08-14T01:58:23;98195.28;;;22.57;74.43
14120;BME280;7138;49.246;9.100;2022-08-14T02:00:52;98196.41;;;22.53;74.71
14120;BME280;7138;49.246;9.100;2022-08-14T02:03:19;98182.53;;;22.50;74.50
14120;BME280;7138;49.246;9.100;2022-08-14T02:05:45;98177.44;;;22.47;74.63
14120;BME280;7138;49.246;9.100;2022-08-14T02:08:11;98168.03;;;22.43;74.86
14120;BME280;7138;49.246;9.100;2022-08-14T02:10:39;98158.78;;;22.36;74.89
14120;BME280;7138;49.246;9.100;2022-08-14T02:13:05;98156.41;;;22.31;74.72
14120;BME280;7138;49.246;9.100;2022-08-14T02:15:37;98156.94;;;22.22;74.75
14120;BME280;7138;49.246;9.100;2022-08-14T02:18:05;98157.09;;;22.19;74.37
14120;BME280;7138;49.246;9.100;2022-08-14T02:20:33;98164.50;;;22.12;74.79
14120;BME280;7138;49.246;9.100;2022-08-14T02:22:59;98161.94;;;22.11;74.50
14120;BME280;7138;49.246;9.100;2022-08-14T02:25:24;98164.72;;;22.08;74.47
14120;BME280;7138;49.246;9.100;2022-08-14T02:27:50;98158.78;;;22.04;74.61
14120;BME280;7138;49.246;9.100;2022-08-14T02:30:21;98170.84;;;21.93;74.45
14120;BME280;7138;49.246;9.100;2022-08-14T02:32:48;98171.31;;;21.84;75.08
14120;BME280;7138;49.246;9.100;2022-08-14T02:35:14;98170.47;;;21.83;75.62
14120;BME280;7138;49.246;9.100;2022-08-14T02:37:43;98161.56;;;21.70;76.43
14120;BME280;7138;49.246;9.100;2022-08-14T02:40:10;98165.16;;;21.67;76.76
14120;BME280;7138;49.246;9.100;2022-08-14T02:42:37;98161.88;;;21.64;76.44
14120;BME280;7138;49.246;9.100;2022-08-14T02:45:05;98164.56;;;21.62;76.50
14120;BME280;7138;49.246;9.100;2022-08-14T02:47:32;98159.47;;;21.59;77.33
14120;BME280;7138;49.246;9.100;2022-08-14T02:50:00;98154.31;;;21.58;77.17
14120;BME280;7138;49.246;9.100;2022-08-14T02:52:26;98148.38;;;21.54;77.28
14120;BME280;7138;49.246;9.100;2022-08-14T02:54:52;98141.56;;;21.50;76.84
14120;BME280;7138;49.246;9.100;2022-08-14T02:57:22;98144.19;;;21.50;76.96
14120;BME280;7138;49.246;9.100;2022-08-14T02:59:48;98131.78;;;21.37;77.37
14120;BME280;7138;49.246;9.100;2022-08-14T03:02:14;98137.88;;;21.37;77.13
14120;BME280;7138;49.246;9.100;2022-08-14T03:04:41;98137.97;;;21.36;76.98
14120;BME280;7138;49.246;9.100;2022-08-14T03:07:10;98132.53;;;21.39;77.36
14120;BME280;7138;49.246;9.100;2022-08-14T03:09:37;98129.53;;;21.29;77.61
14120;BME280;7138;49.246;9.100;2022-08-14T03:12:04;98135.06;;;21.24;77.82
14120;BME280;7138;49.246;9.100;2022-08-14T03:14:30;98133.56;;;21.19;78.61
14120;BME280;7138;49.246;9.100;2022-08-14T03:17:00;98128.63;;;21.13;78.52
14120;BME280;7138;49.246;9.100;2022-08-14T03:19:26;98125.38;;;21.08;78.54
14120;BME280;7138;49.246;9.100;2022-08-14T03:21:52;98120.22;;;21.06;79.04
14120;BME280;7138;49.246;9.100;2022-08-14T03:24:19;98129.25;;;21.01;78.83
14120;BME280;7138;49.246;9.100;2022-08-14T03:26:47;98123.31;;;20.97;78.42
14120;BME280;7138;49.246;9.100;2022-08-14T03:29:17;98125.00;;;20.98;79.00
14120;BME280;7138;49.246;9.100;2022-08-14T03:31:46;98127.88;;;20.94;79.19
14120;BME280;7138;49.246;9.100;2022-08-14T03:34:17;98124.63;;;20.89;78.97
14120;BME280;7138;49.246;9.100;2022-08-14T03:36:43;98123.84;;;20.87;79.50
14120;BME280;7138;49.246;9.100;2022-08-14T03:39:11;98119.66;;;20.83;79.89
14120;BME280;7138;49.246;9.100;2022-08-14T03:41:38;98120.63;;;20.82;79.93
14120;BME280;7138;49.246;9.100;2022-08-14T03:44:05;98125.09;;;20.80;80.02
14120;BME280;7138;49.246;9.100;2022-08-14T03:46:35;98123.72;;;20.73;80.58
14120;BME280;7138;49.246;9.100;2022-08-14T03:49:02;98122.16;;;20.68;81.18
14120;BME280;7138;49.246;9.100;2022-08-14T03:51:30;98106.84;;;20.59;80.80
14120;BME280;7138;49.246;9.100;2022-08-14T03:53:58;98125.00;;;20.64;80.46
14120;BME280;7138;49.246;9.100;2022-08-14T03:56:26;98118.94;;;20.63;81.20
14120;BME280;7138;49.246;9.100;2022-08-14T03:58:58;98121.31;;;20.51;82.25
14120;BME280;7138;49.246;9.100;2022-08-14T04:01:26;98112.41;;;20.53;81.15
14120;BME280;7138;49.246;9.100;2022-08-14T04:03:55;98114.81;;;20.58;81.48
14120;BME280;7138;49.246;9.100;2022-08-14T04:06:30;98108.03;;;20.54;81.47
14120;BME280;7138;49.246;9.100;2022-08-14T04:08:56;98107.31;;;20.50;82.20
14120;BME280;7138;49.246;9.100;2022-08-14T04:11:22;98106.72;;;20.45;82.46
14120;BME280;7138;49.246;9.100;2022-08-14T04:13:47;98101.66;;;20.41;82.64
14120;BME280;7138;49.246;9.100;2022-08-14T04:16:18;98107.78;;;20.41;82.64
14120;BME280;7138;49.246;9.100;2022-08-14T04:18:48;98105.38;;;20.37;83.14
14120;BME280;7138;49.246;9.100;2022-08-14T04:21:16;98102.13;;;20.32;83.49
14120;BME280;7138;49.246;9.100;2022-08-14T04:23:43;98094.41;;;20.29;83.35
14120;BME280;7138;49.246;9.100;2022-08-14T04:26:12;98090.16;;;20.26;83.50
14120;BME280;7138;49.246;9.100;2022-08-14T04:28:41;98099.75;;;20.27;83.66
14120;BME280;7138;49.246;9.100;2022-08-14T04:31:08;98098.03;;;20.26;83.83
14120;BME280;7138;49.246;9.100;2022-08-14T04:33:35;98097.19;;;20.26;83.73
14120;BME280;7138;49.246;9.100;2022-08-14T04:36:02;98092.97;;;20.22;84.06
14120;BME280;7138;49.246;9.100;2022-08-14T04:38:28;98092.13;;;20.21;83.72
14120;BME280;7138;49.246;9.100;2022-08-14T04:41:13;98098.59;;;20.33;83.65
14120;BME280;7138;49.246;9.100;2022-08-14T04:43:57;98099.59;;;20.30;83.99
14120;BME280;7138;49.246;9.100;2022-08-14T04:46:24;98097.13;;;20.27;84.77
14120;BME280;7138;49.246;9.100;2022-08-14T04:48:53;98089.31;;;20.26;84.94
14120;BME280;7138;49.246;9.100;2022-08-14T04:51:22;98094.56;;;20.26;85.27
14120;BME280;7138;49.246;9.100;2022-08-14T04:53:54;98089.34;;;20.24;85.10
14120;BME280;7138;49.246;9.100;2022-08-14T04:56:24;98079.81;;;20.22;85.34
14120;BME280;7138;49.246;9.100;2022-08-14T04:58:57;98087.38;;;20.29;85.46
14120;BME280;7138;49.246;9.100;2022-08-14T05:01:25;98073.94;;;20.35;85.16
14120;BME280;7138;49.246;9.100;2022-08-14T05:03:52;98089.25;;;20.79;85.10
14120;BME280;7138;49.246;9.100;2022-08-14T05:06:19;98088.53;;;21.25;83.07
14120;BME280;7138;49.246;9.100;2022-08-14T05:08:46;98086.31;;;21.82;81.79
14120;BME280;7138;49.246;9.100;2022-08-14T05:11:12;98081.25;;;22.40;79.83
14120;BME280;7138;49.246;9.100;2022-08-14T05:13:40;98085.38;;;23.03;78.56
14120;BME280;7138;49.246;9.100;2022-08-14T05:16:06;98078.56;;;23.70;76.36
14120;BME280;7138;49.246;9.100;2022-08-14T05:18:35;98083.56;;;24.42;74.67
14120;BME280;7138;49.246;9.100;2022-08-14T05:21:06;98089.50;;;25.23;72.16
14120;BME280;7138;49.246;9.100;2022-08-14T05:23:34;98086.50;;;26.01;69.96
14120;BME280;7138;49.246;9.100;2022-08-14T05:26:02;98089.13;;;26.73;68.33
14120;BME280;7138;49.246;9.100;2022-08-14T05:28:33;98093.50;;;27.42;66.37
14120;BME280;7138;49.246;9.100;2022-08-14T05:31:02;98089.13;;;28.07;65.14
14120;BME280;7138;49.246;9.100;2022-08-14T05:33:30;98083.84;;;28.71;64.06
14120;BME280;7138;49.246;9.100;2022-08-14T05:36:00;98086.63;;;29.32;62.33
14120;BME280;7138;49.246;9.100;2022-08-14T05:38:30;98082.81;;;29.85;61.65
14120;BME280;7138;49.246;9.100;2022-08-14T05:40:59;98092.59;;;30.44;60.14
14120;BME280;7138;49.246;9.100;2022-08-14T05:43:25;98094.41;;;30.91;58.68
14120;BME280;7138;49.246;9.100;2022-08-14T05:45:51;98097.72;;;31.31;57.79
14120;BME280;7138;49.246;9.100;2022-08-14T05:48:17;98102.41;;;31.66;57.14
14120;BME280;7138;49.246;9.100;2022-08-14T05:50:44;98100.59;;;31.94;57.33
14120;BME280;7138;49.246;9.100;2022-08-14T05:53:10;98103.59;;;32.36;56.09
14120;BME280;7138;49.246;9.100;2022-08-14T05:55:37;98084.78;;;32.81;55.05
14120;BME280;7138;49.246;9.100;2022-08-14T05:58:06;98094.84;;;33.22;54.80
14120;BME280;7138;49.246;9.100;2022-08-14T06:00:35;98096.19;;;33.52;53.73
14120;BME280;7138;49.246;9.100;2022-08-14T06:03:03;98100.88;;;33.84;52.90
14120;BME280;7138;49.246;9.100;2022-08-14T06:05:30;98098.41;;;33.90;52.83
14120;BME280;7138;49.246;9.100;2022-08-14T06:07:58;98099.31;;;34.07;52.78
14120;BME280;7138;49.246;9.100;2022-08-14T06:10:25;98099.06;;;34.34;51.81
14120;BME280;7138;49.246;9.100;2022-08-14T06:12:53;98093.56;;;34.44;50.91
14120;BME280;7138;49.246;9.100;2022-08-14T06:15:19;98099.41;;;34.47;50.87
14120;BME280;7138;49.246;9.100;2022-08-14T06:17:46;98093.38;;;34.53;50.78
14120;BME280;7138;49.246;9.100;2022-08-14T06:20:14;98090.53;;;34.55;50.67
14120;BME280;7138;49.246;9.100;2022-08-14T06:22:41;98088.00;;;34.53;50.61
14120;BME280;7138;49.246;9.100;2022-08-14T06:25:09;98096.22;;;34.36;50.98
14120;BME280;7138;49.246;9.100;2022-08-14T06:27:36;98091.25;;;34.07;50.74
14120;BME280;7138;49.246;9.100;2022-08-14T06:30:06;98093.78;;;33.67;51.28
14120;BME280;7138;49.246;9.100;2022-08-14T06:32:33;98080.41;;;33.23;52.02
14120;BME280;7138;49.246;9.100;2022-08-14T06:34:59;98074.00;;;32.73;52.93
14120;BME280;7138;49.246;9.100;2022-08-14T06:37:25;98076.75;;;32.28;54.17
14120;BME280;7138;49.246;9.100;2022-08-14T06:39:52;98067.94;;;31.90;54.60
14120;BME280;7138;49.246;9.100;2022-08-14T06:42:18;98065.81;;;31.67;55.45
14120;BME280;7138;49.246;9.100;2022-08-14T06:44:45;98067.63;;;31.29;55.07
14120;BME280;7138;49.246;9.100;2022-08-14T06:47:12;98064.34;;;30.79;55.80
14120;BME280;7138;49.246;9.100;2022-08-14T06:49:38;98055.34;;;30.32;56.96
14120;BME280;7138;49.246;9.100;2022-08-14T06:52:04;98055.59;;;29.91;57.52
14120;BME280;7138;49.246;9.100;2022-08-14T06:54:29;98045.03;;;29.50;58.53
14120;BME280;7138;49.246;9.100;2022-08-14T06:56:56;98042.38;;;29.19;59.04
14120;BME280;7138;49.246;9.100;2022-08-14T06:59:22;98034.25;;;29.00;59.88
14120;BME280;7138;49.246;9.100;2022-08-14T07:01:47;98034.69;;;28.75;60.42
14120;BME280;7138;49.246;9.100;2022-08-14T07:04:33;98019.59;;;28.44;61.42
14120;BME280;7138;49.246;9.100;2022-08-14T07:07:18;98025.53;;;28.36;61.36
14120;BME280;7138;49.246;9.100;2022-08-14T07:09:44;98023.41;;;28.30;61.77
14120;BME280;7138;49.246;9.100;2022-08-14T07:12:10;98021.63;;;28.19;61.80
14120;BME280;7138;49.246;9.100;2022-08-14T07:14:35;98018.13;;;28.19;61.54
14120;BME280;7138;49.246;9.100;2022-08-14T07:17:01;98023.09;;;28.12;61.55
14120;BME280;7138;49.246;9.100;2022-08-14T07:19:27;98016.50;;;28.07;61.79
14120;BME280;7138;49.246;9.100;2022-08-14T07:21:55;98013.59;;;27.99;61.79
14120;BME280;7138;49.246;9.100;2022-08-14T07:24:21;98012.28;;;28.04;61.75
14120;BME280;7138;49.246;9.100;2022-08-14T07:26:47;98011.88;;;28.09;62.09
14120;BME280;7138;49.246;9.100;2022-08-14T07:29:13;98016.19;;;28.21;61.94
14120;BME280;7138;49.246;9.100;2022-08-14T07:31:38;98016.84;;;28.34;61.32
14120;BME280;7138;49.246;9.100;2022-08-14T07:34:04;98023.69;;;28.48;61.52
14120;BME280;7138;49.246;9.100;2022-08-14T07:36:30;98021.31;;;28.65;60.72
14120;BME280;7138;49.246;9.100;2022-08-14T07:38:57;98022.28;;;28.85;59.75
14120;BME280;7138;49.246;9.100;2022-08-14T07:41:23;98032.00;;;28.96;59.15
14120;BME280;7138;49.246;9.100;2022-08-14T07:43:49;98030.09;;;29.07;58.87
14120;BME280;7138;49.246;9.100;2022-08-14T07:46:15;98029.75;;;29.21;58.12
14120;BME280;7138;49.246;9.100;2022-08-14T07:48:41;98034.94;;;29.44;57.65
14120;BME280;7138;49.246;9.100;2022-08-14T07:51:09;98018.00;;;29.54;57.81
14120;BME280;7138;49.246;9.100;2022-08-14T07:53:35;98036.28;;;29.78;57.18
14120;BME280;7138;49.246;9.100;2022-08-14T07:56:03;98031.72;;;29.90;57.22
14120;BME280;7138;49.246;9.100;2022-08-14T07:58:29;98034.53;;;29.88;56.51
14120;BME280;7138;49.246;9.100;2022-08-14T08:00:55;98025.72;;;29.97;56.02
14120;BME280;7138;49.246;9.100;2022-08-14T08:03:24;98027.00;;;30.12;56.88
14120;BME280;7138;49.246;9.100;2022-08-14T08:05:52;98016.56;;;30.28;56.50
14120;BME280;7138;49.246;9.100;2022-08-14T08:08:20;98017.31;;;30.40;55.39
14120;BME280;7138;49.246;9.100;2022-08-14T08:10:46;98014.78;;;30.48;54.74
14120;BME280;7138;49.246;9.100;2022-08-14T08:13:18;98021.38;;;30.54;55.73
14120;BME280;7138;49.246;9.100;2022-08-14T08:15:47;98029.38;;;30.73;55.29
14120;BME280;7138;49.246;9.100;2022-08-14T08:18:16;98037.31;;;30.92;54.27
14120;BME280;7138;49.246;9.100;2022-08-14T08:20:45;98040.28;;;31.08;53.78
14120;BME280;7138;49.246;9.100;2022-08-14T08:23:12;98042.06;;;31.17;52.86
14120;BME280;7138;49.246;9.100;2022-08-14T08:25:41;98039.38;;;31.27;52.85
14120;BME280;7138;49.246;9.100;2022-08-14T08:28:13;98046.63;;;31.34;53.16
14120;BME280;7138;49.246;9.100;2022-08-14T08:30:47;98044.66;;;31.46;52.22
14120;BME280;7138;49.246;9.100;2022-08-14T08:33:13;98023.09;;;31.57;52.46
14120;BME280;7138;49.246;9.100;2022-08-14T08:35:42;98026.09;;;31.72;51.91
14120;BME280;7138;49.246;9.100;2022-08-14T08:38:11;98026.03;;;31.81;51.48
14120;BME280;7138;49.246;9.100;2022-08-14T08:40:41;98025.66;;;31.76;50.81
14120;BME280;7138;49.246;9.100;2022-08-14T08:43:16;98019.72;;;31.82;50.81
14120;BME280;7138;49.246;9.100;2022-08-14T08:45:52;98019.91;;;31.89;51.24
14120;BME280;7138;49.246;9.100;2022-08-14T08:48:19;98016.94;;;31.92;51.16
14120;BME280;7138;49.246;9.100;2022-08-14T08:50:44;98030.91;;;32.13;50.79
14120;BME280;7138;49.246;9.100;2022-08-14T08:53:10;98029.78;;;32.33;51.27
14120;BME280;7138;49.246;9.100;2022-08-14T08:55:38;98011.09;;;32.41;50.48
14120;BME280;7138;49.246;9.100;2022-08-14T08:58:07;98024.81;;;32.74;50.72
14120;BME280;7138;49.246;9.100;2022-08-14T09:00:36;98017.25;;;32.95;49.76
14120;BME280;7138;49.246;9.100;2022-08-14T09:03:08;98006.84;;;33.18;50.36
14120;BME280;7138;49.246;9.100;2022-08-14T09:05:37;98000.06;;;33.39;48.99
14120;BME280;7138;49.246;9.100;2022-08-14T09:08:13;98003.81;;;33.54;48.41
14120;BME280;7138;49.246;9.100;2022-08-14T09:10:40;98004.28;;;33.50;48.68
14120;BME280;7138;49.246;9.100;2022-08-14T09:13:06;98002.50;;;33.59;49.48
14120;BME280;7138;49.246;9.100;2022-08-14T09:15:32;98004.19;;;33.60;48.46
14120;BME280;7138;49.246;9.100;2022-08-14T09:17:59;98002.84;;;33.56;47.38
14120;BME280;7138;49.246;9.100;2022-08-14T09:20:27;97990.06;;;33.49;47.43
14120;BME280;7138;49.246;9.100;2022-08-14T09:22:54;97990.19;;;33.40;48.54
14120;BME280;7138;49.246;9.100;2022-08-14T09:25:20;97973.94;;;33.41;48.22
14120;BME280;7138;49.246;9.100;2022-08-14T09:27:46;97966.91;;;33.40;48.25
14120;BME280;7138;49.246;9.100;2022-08-14T09:30:12;97965.75;;;33.51;47.67
14120;BME280;7138;49.246;9.100;2022-08-14T09:32:55;97960.28;;;33.61;47.26
14120;BME280;7138;49.246;9.100;2022-08-14T09:35:42;97960.34;;;33.77;45.70
14120;BME280;7138;49.246;9.100;2022-08-14T09:38:32;97956.81;;;33.84;46.24
14120;BME280;7138;49.246;9.100;2022-08-14T09:41:15;97950.81;;;33.98;46.80
14120;BME280;7138;49.246;9.100;2022-08-14T09:43:58;97947.81;;;34.18;45.68
14120;BME280;7138;49.246;9.100;2022-08-14T09:46:24;97953.38;;;34.24;46.25
14120;BME280;7138;49.246;9.100;2022-08-14T09:48:58;97947.97;;;34.32;44.41
14120;BME280;7138;49.246;9.100;2022-08-14T09:51:27;97949.66;;;34.33;45.63
14120;BME280;7138;49.246;9.100;2022-08-14T09:54:01;97945.63;;;34.29;44.07
14120;BME280;7138;49.246;9.100;2022-08-14T09:56:42;97941.78;;;34.40;44.25
14120;BME280;7138;49.246;9.100;2022-08-14T09:59:10;97943.44;;;34.57;44.67
14120;BME280;7138;49.246;9.100;2022-08-14T10:01:42;97943.94;;;34.69;44.13
14120;BME280;7138;49.246;9.100;2022-08-14T10:04:18;97950.47;;;34.82;44.23
14120;BME280;7138;49.246;9.100;2022-08-14T10:06:46;97946.09;;;34.81;44.46
14120;BME280;7138;49.246;9.100;2022-08-14T10:09:12;97958.19;;;34.85;44.55
14120;BME280;7138;49.246;9.100;2022-08-14T10:11:40;97959.03;;;34.86;42.86
14120;BME280;7138;49.246;9.100;2022-08-14T10:14:15;97939.06;;;34.80;42.40
14120;BME280;7138;49.246;9.100;2022-08-14T10:16:43;97950.97;;;34.78;44.07
14120;BME280;7138;49.246;9.100;2022-08-14T10:19:13;97951.97;;;34.85;43.06
14120;BME280;7138;49.246;9.100;2022-08-14T10:21:42;97951.28;;;34.91;43.48
14120;BME280;7138;49.246;9.100;2022-08-14T10:24:21;97941.53;;;34.98;42.57
14120;BME280;7138;49.246;9.100;2022-08-14T10:26:52;97940.56;;;34.83;43.04
14120;BME280;7138;49.246;9.100;2022-08-14T10:29:31;97925.75;;;34.87;42.00
14120;BME280;7138;49.246;9.100;2022-08-14T10:31:58;97924.25;;;34.84;42.94
14120;BME280;7138;49.246;9.100;2022-08-14T10:34:31;97896.19;;;34.87;42.95
14120;BME280;7138;49.246;9.100;2022-08-14T10:37:04;97901.78;;;34.77;43.26
14120;BME280;7138;49.246;9.100;2022-08-14T10:39:34;97890.69;;;34.80;43.05
14120;BME280;7138;49.246;9.100;2022-08-14T10:42:06;97885.13;;;34.90;43.03
14120;BME280;7138;49.246;9.100;2022-08-14T10:44:33;97886.44;;;34.94;42.53
14120;BME280;7138;49.246;9.100;2022-08-14T10:47:00;97881.69;;;35.04;42.93
14120;BME280;7138;49.246;9.100;2022-08-14T10:49:33;97875.09;;;35.23;42.41
14120;BME280;7138;49.246;9.100;2022-08-14T10:52:03;97867.47;;;35.34;42.69
14120;BME280;7138;49.246;9.100;2022-08-14T10:54:39;97852.16;;;35.35;41.76
14120;BME280;7138;49.246;9.100;2022-08-14T10:57:16;97856.25;;;35.53;42.09
14120;BME280;7138;49.246;9.100;2022-08-14T10:59:52;97849.16;;;35.60;42.44
14120;BME280;7138;49.246;9.100;2022-08-14T11:02:25;97836.72;;;35.51;42.17
14120;BME280;7138;49.246;9.100;2022-08-14T11:05:07;97828.09;;;35.41;40.98
14120;BME280;7138;49.246;9.100;2022-08-14T11:07:36;97824.91;;;35.38;42.10
14120;BME280;7138;49.246;9.100;2022-08-14T11:10:11;97828.00;;;35.49;42.60
14120;BME280;7138;49.246;9.100;2022-08-14T11:12:43;97830.69;;;35.49;42.75
14120;BME280;7138;49.246;9.100;2022-08-14T11:15:15;97821.22;;;35.61;42.82
14120;BME280;7138;49.246;9.100;2022-08-14T11:17:41;97812.16;;;35.62;41.65
14120;BME280;7138;49.246;9.100;2022-08-14T11:20:10;97811.78;;;35.66;42.42
14120;BME280;7138;49.246;9.100;2022-08-14T11:22:38;97830.81;;;35.33;42.57
14120;BME280;7138;49.246;9.100;2022-08-14T11:25:09;97835.63;;;35.15;42.46
14120;BME280;7138;49.246;9.100;2022-08-14T11:27:39;97828.19;;;35.25;42.55
14120;BME280;7138;49.246;9.100;2022-08-14T11:30:08;97815.44;;;35.42;42.77
14120;BME280;7138;49.246;9.100;2022-08-14T11:32:35;97823.56;;;35.34;42.33
14120;BME280;7138;49.246;9.100;2022-08-14T11:35:01;97819.16;;;35.41;42.17
14120;BME280;7138;49.246;9.100;2022-08-14T11:37:28;97834.09;;;35.43;41.77
14120;BME280;7138;49.246;9.100;2022-08-14T11:39:54;97831.00;;;35.32;42.90
14120;BME280;7138;49.246;9.100;2022-08-14T11:42:24;97806.59;;;35.33;42.89
14120;BME280;7138;49.246;9.100;2022-08-14T11:44:52;97805.78;;;35.55;43.25
14120;BME280;7138;49.246;9.100;2022-08-14T11:47:20;97811.66;;;35.59;42.80
14120;BME280;7138;49.246;9.100;2022-08-14T11:49:47;97811.94;;;35.64;42.40
14120;BME280;7138;49.246;9.100;2022-08-14T11:52:15;97806.25;;;35.82;42.87
14120;BME280;7138;49.246;9.100;2022-08-14T11:54:44;97812.72;;;35.95;42.99
14120;BME280;7138;49.246;9.100;2022-08-14T11:57:14;97811.22;;;35.93;42.00
14120;BME280;7138;49.246;9.100;2022-08-14T11:59:42;97818.19;;;36.02;42.26
14120;BME280;7138;49.246;9.100;2022-08-14T12:02:14;97811.50;;;35.98;42.72
14120;BME280;7138;49.246;9.100;2022-08-14T12:04:51;97816.94;;;36.12;41.98
14120;BME280;7138;49.246;9.100;2022-08-14T12:07:18;97816.78;;;36.29;41.98
14120;BME280;7138;49.246;9.100;2022-08-14T12:09:51;97812.13;;;36.37;41.13
14120;BME280;7138;49.246;9.100;2022-08-14T12:12:19;97808.34;;;36.61;41.21
14120;BME280;7138;49.246;9.100;2022-08-14T12:14:53;97803.25;;;36.81;40.08
14120;BME280;7138;49.246;9.100;2022-08-14T12:17:22;97792.47;;;36.81;40.00
14120;BME280;7138;49.246;9.100;2022-08-14T12:19:52;97780.75;;;36.74;41.33
14120;BME280;7138;49.246;9.100;2022-08-14T12:22:32;97790.47;;;36.89;39.98
14120;BME280;7138;49.246;9.100;2022-08-14T12:24:59;97782.06;;;36.78;40.92
14120;BME280;7138;49.246;9.100;2022-08-14T12:27:35;97767.16;;;36.82;41.34
14120;BME280;7138;49.246;9.100;2022-08-14T12:30:04;97773.00;;;36.85;40.74
14120;BME280;7138;49.246;9.100;2022-08-14T12:32:39;97761.75;;;36.82;40.78
14120;BME280;7138;49.246;9.100;2022-08-14T12:35:07;97755.09;;;36.78;40.85
14120;BME280;7138;49.246;9.100;2022-08-14T12:37:33;97750.50;;;36.93;40.78
14120;BME280;7138;49.246;9.100;2022-08-14T12:40:12;97752.72;;;37.04;40.06
14120;BME280;7138;49.246;9.100;2022-08-14T12:42:38;97742.16;;;37.23;40.56
14120;BME280;7138;49.246;9.100;2022-08-14T12:45:07;97734.63;;;37.40;39.92
14120;BME280;7138;49.246;9.100;2022-08-14T12:47:38;97730.53;;;37.44;40.16
14120;BME280;7138;49.246;9.100;2022-08-14T12:50:06;97730.16;;;37.47;40.23
14120;BME280;7138;49.246;9.100;2022-08-14T12:52:35;97731.00;;;37.48;39.54
14120;BME280;7138;49.246;9.100;2022-08-14T12:55:05;97728.00;;;37.21;39.32
14120;BME280;7138;49.246;9.100;2022-08-14T12:57:38;97732.09;;;36.96;38.92
14120;BME280;7138;49.246;9.100;2022-08-14T13:00:13;97721.00;;;36.91;39.63
14120;BME280;7138;49.246;9.100;2022-08-14T13:02:45;97716.59;;;36.84;39.88
14120;BME280;7138;49.246;9.100;2022-08-14T13:05:13;97714.59;;;36.92;39.72
14120;BME280;7138;49.246;9.100;2022-08-14T13:07:41;97710.88;;;37.08;39.39
14120;BME280;7138;49.246;9.100;2022-08-14T13:10:10;97709.38;;;37.05;38.79
14120;BME280;7138;49.246;9.100;2022-08-14T13:12:38;97707.59;;;36.98;39.29
14120;BME280;7138;49.246;9.100;2022-08-14T13:15:07;97712.84;;;36.85;39.83
14120;BME280;7138;49.246;9.100;2022-08-14T13:17:41;97707.84;;;36.82;39.17
14120;BME280;7138;49.246;9.100;2022-08-14T13:20:09;97700.66;;;36.89;39.55